createdAt,value
2023-01-20T00:03:58.379Z,2.98
2023-01-20T00:09:04.531Z,3.27
2023-01-20T00:14:10.721Z,3.27
2023-01-20T00:19:16.795Z,3.62
2023-01-20T00:24:23.068Z,3.90
2023-01-20T00:29:29.245Z,3.95
2023-01-20T00:34:35.571Z,4.65
2023-01-20T00:39:41.675Z,4.89
2023-01-20T00:44:47.940Z,5.00
2023-01-20T00:49:54.099Z,5.04
2023-01-20T00:55:00.290Z,5.55
2023-01-20T01:00:06.385Z,5.85
2023-01-20T01:05:12.902Z,6.40
2023-01-20T01:10:18.809Z,7.52
2023-01-20T01:15:25.042Z,7.94
2023-01-20T01:20:31.147Z,9.61
2023-01-20T01:25:37.360Z,10.15
2023-01-20T01:30:43.610Z,11.21
2023-01-20T01:35:49.828Z,12.25
2023-01-20T01:40:55.892Z,13.29
2023-01-20T01:46:02.122Z,13.13
2023-01-20T01:51:08.247Z,13.75
2023-01-20T01:56:14.481Z,14.49
2023-01-20T02:01:20.799Z,14.10
2023-01-20T02:06:27.670Z,13.83
2023-01-20T02:11:33.817Z,14.05
2023-01-20T02:16:40.164Z,13.50
2023-01-20T02:21:46.193Z,13.16
2023-01-20T02:26:52.346Z,13.13
2023-01-20T02:31:58.546Z,12.57
2023-01-20T02:37:05.080Z,12.29
2023-01-20T02:42:11.193Z,12.50
2023-01-20T02:47:17.410Z,12.41
2023-01-20T02:52:23.582Z,12.81
2023-01-20T02:57:29.942Z,12.33
2023-01-20T03:02:36.063Z,11.88
2023-01-20T03:07:42.267Z,11.81
2023-01-20T03:12:48.402Z,10.95
2023-01-20T03:17:54.714Z,10.20
2023-01-20T03:23:00.808Z,10.46
2023-01-20T03:28:07.139Z,10.51
2023-01-20T03:33:13.338Z,9.68
2023-01-20T03:38:19.625Z,9.54
2023-01-20T03:43:25.685Z,9.53
2023-01-20T03:48:31.883Z,9.33
2023-01-20T03:53:38.032Z,8.63
2023-01-20T03:58:44.569Z,8.95
2023-01-20T04:03:50.680Z,9.18
2023-01-20T04:08:57.217Z,8.97
2023-01-20T04:14:03.103Z,8.68
2023-01-20T04:19:09.334Z,8.73
2023-01-20T04:24:15.379Z,8.88
2023-01-20T04:29:21.621Z,8.30
2023-01-20T04:34:27.854Z,8.90
2023-01-20T04:39:34.038Z,8.66
2023-01-20T04:44:40.156Z,8.27
2023-01-20T04:49:46.382Z,8.34
2023-01-20T04:54:52.523Z,8.81
2023-01-20T04:59:58.711Z,8.47
2023-01-20T05:05:04.779Z,8.46
2023-01-20T05:10:13.094Z,8.45
2023-01-20T05:15:17.047Z,8.51
2023-01-20T05:20:22.889Z,8.57
2023-01-20T05:25:28.954Z,8.54
2023-01-20T05:30:35.239Z,8.00
2023-01-20T05:35:41.367Z,8.35
2023-01-20T05:40:47.551Z,8.14
2023-01-20T05:45:53.625Z,8.36
2023-01-20T05:50:59.840Z,8.37
2023-01-20T05:56:06.025Z,9.04
2023-01-20T06:01:12.735Z,8.82
2023-01-20T06:06:18.702Z,8.84
2023-01-20T06:11:25.068Z,9.07
2023-01-20T06:16:31.251Z,8.90
2023-01-20T06:21:37.393Z,8.47
2023-01-20T06:26:43.834Z,9.10
2023-01-20T06:31:50.142Z,9.36
2023-01-20T06:36:56.231Z,9.03
2023-01-20T06:42:02.428Z,9.14
2023-01-20T06:47:08.484Z,9.08
2023-01-20T06:52:14.675Z,9.23
2023-01-20T06:57:20.767Z,8.95
2023-01-20T07:02:27.784Z,9.55
2023-01-20T07:07:33.830Z,9.43
2023-01-20T07:12:39.995Z,9.61
2023-01-20T07:17:46.079Z,9.20
2023-01-20T07:22:52.336Z,9.50
2023-01-20T07:27:58.481Z,9.30
2023-01-20T07:33:04.730Z,9.93
2023-01-20T07:38:10.784Z,9.76
2023-01-20T07:43:17.115Z,9.51
2023-01-20T07:48:23.342Z,10.14
2023-01-20T07:53:29.730Z,9.63
2023-01-20T07:58:35.930Z,10.79
2023-01-20T08:03:42.114Z,10.70
2023-01-20T08:08:48.549Z,10.23
2023-01-20T08:13:54.736Z,11.06
2023-01-20T08:19:00.917Z,11.21
2023-01-20T08:24:07.253Z,11.84
2023-01-20T08:29:13.347Z,11.22
2023-01-20T08:34:19.565Z,11.29
2023-01-20T08:39:25.660Z,11.70
2023-01-20T08:44:31.941Z,11.55
2023-01-20T08:49:38.004Z,11.15
2023-01-20T08:54:44.165Z,10.90
2023-01-20T08:59:50.241Z,10.46
2023-01-20T09:04:56.404Z,11.17
2023-01-20T09:10:03.250Z,10.86
2023-01-20T09:15:09.423Z,10.89
2023-01-20T09:20:15.517Z,9.22
2023-01-20T09:25:21.831Z,9.55
2023-01-20T09:30:28.007Z,9.88
2023-01-20T09:35:34.209Z,9.64
2023-01-20T09:40:40.297Z,9.40
2023-01-20T09:45:46.495Z,9.56
2023-01-20T09:50:52.572Z,9.94
2023-01-20T09:55:58.816Z,9.25
2023-01-20T10:01:04.957Z,9.11
2023-01-20T10:06:11.081Z,8.56
2023-01-20T10:11:17.176Z,8.88
2023-01-20T10:16:23.441Z,9.09
2023-01-20T10:21:29.492Z,9.74
2023-01-20T10:26:35.647Z,9.99
2023-01-20T10:31:41.898Z,9.74
2023-01-20T10:36:48.158Z,9.28
2023-01-20T10:41:54.233Z,9.00
2023-01-20T10:47:00.384Z,8.94
2023-01-20T10:52:06.428Z,8.81
2023-01-20T10:57:12.592Z,9.34
2023-01-20T11:02:18.721Z,8.92
2023-01-20T11:07:24.958Z,9.00
2023-01-20T11:12:31.120Z,8.44
2023-01-20T11:17:37.417Z,8.93
2023-01-20T11:22:43.547Z,9.13
2023-01-20T11:27:49.728Z,9.53
2023-01-20T11:32:55.912Z,9.20
2023-01-20T11:38:02.131Z,9.20
2023-01-20T11:43:08.266Z,9.03
2023-01-20T11:48:16.289Z,9.08
2023-01-20T11:53:20.106Z,9.26
2023-01-20T11:58:26.333Z,9.55
2023-01-20T12:03:32.488Z,9.90
2023-01-20T12:08:38.684Z,9.51
2023-01-20T12:13:45.586Z,9.40
2023-01-20T12:19:01.799Z,9.23
2023-01-20T12:24:57.690Z,10.34
2023-01-20T12:30:03.979Z,9.47
2023-01-20T12:35:10.020Z,9.08
2023-01-20T12:40:16.840Z,8.75
2023-01-20T12:45:21.991Z,9.57
2023-01-20T12:50:28.163Z,9.22
2023-01-20T12:55:34.241Z,8.85
2023-01-20T13:00:40.448Z,8.84
2023-01-20T13:05:46.519Z,8.97
2023-01-20T13:10:52.701Z,9.20
2023-01-20T13:15:58.875Z,9.04
2023-01-20T13:21:05.212Z,9.10
2023-01-20T13:26:11.272Z,9.08
2023-01-20T13:31:17.607Z,9.15
2023-01-20T13:36:23.609Z,9.03
2023-01-20T13:41:29.845Z,9.03
2023-01-20T13:46:35.978Z,8.92
2023-01-20T13:51:42.252Z,9.32
2023-01-20T13:56:48.360Z,9.03
2023-01-20T14:01:54.518Z,8.28
2023-01-20T14:07:00.761Z,8.64
2023-01-20T14:12:07.001Z,8.51
2023-01-20T14:17:13.063Z,8.86
2023-01-20T14:22:19.204Z,8.68
2023-01-20T14:27:25.311Z,8.62
2023-01-20T14:32:31.633Z,9.58
2023-01-20T14:37:37.829Z,9.87
2023-01-20T14:42:43.968Z,10.94
2023-01-20T14:47:50.163Z,12.18
2023-01-20T14:52:56.418Z,13.25
2023-01-20T14:58:02.557Z,13.01
2023-01-20T15:03:11.338Z,12.75
2023-01-20T15:08:14.651Z,12.44
2023-01-20T15:13:20.882Z,12.45
2023-01-20T15:18:27.064Z,13.31
2023-01-20T15:23:33.274Z,12.63
2023-01-20T15:28:39.692Z,13.52
2023-01-20T15:33:45.959Z,12.19
2023-01-20T15:38:52.090Z,10.73
2023-01-20T15:43:58.289Z,10.18
2023-01-20T15:49:04.483Z,10.01
2023-01-20T15:54:10.758Z,10.50
2023-01-20T15:59:16.900Z,11.22
2023-01-20T16:04:23.110Z,11.90
2023-01-20T16:09:29.556Z,10.91
2023-01-20T16:14:35.813Z,10.99
2023-01-20T16:19:41.935Z,11.13
2023-01-20T16:24:48.169Z,10.84
2023-01-20T16:29:54.291Z,11.52
2023-01-20T16:35:00.425Z,12.26
2023-01-20T16:40:06.539Z,13.01
2023-01-20T16:45:12.749Z,12.12
2023-01-20T16:50:18.823Z,15.23
2023-01-20T16:55:25.037Z,14.68
2023-01-20T17:00:31.307Z,14.94
2023-01-20T17:05:37.579Z,15.89
2023-01-20T17:10:43.753Z,16.70
2023-01-20T17:15:49.975Z,16.84
2023-01-20T17:20:56.050Z,17.17
2023-01-20T17:26:02.200Z,17.46
2023-01-20T17:31:08.392Z,17.80
2023-01-20T17:36:14.691Z,17.48
2023-01-20T17:41:20.830Z,17.61
2023-01-20T17:46:27.175Z,18.34
2023-01-20T17:51:33.299Z,18.22
2023-01-20T17:56:39.639Z,18.18
2023-01-20T18:01:45.695Z,18.16
2023-01-20T18:06:51.975Z,18.56
2023-01-20T18:12:07.251Z,18.95
2023-01-20T18:17:03.558Z,19.30
2023-01-20T18:22:09.588Z,21.34
2023-01-20T18:27:15.900Z,19.52
2023-01-20T18:32:22.039Z,18.99
2023-01-20T18:37:28.290Z,19.93
2023-01-20T18:42:34.409Z,20.82
2023-01-20T18:47:40.629Z,18.50
2023-01-20T18:52:46.769Z,18.34
2023-01-20T18:57:53.042Z,18.53
2023-01-20T19:02:59.100Z,19.66
2023-01-20T19:08:05.409Z,20.36
2023-01-20T19:13:11.809Z,21.03
2023-01-20T19:18:18.079Z,21.64
2023-01-20T19:23:24.168Z,21.27
2023-01-20T19:28:30.527Z,21.11
2023-01-20T19:33:36.624Z,20.46
2023-01-20T19:38:42.946Z,20.55
2023-01-20T19:43:49.474Z,21.40
2023-01-20T19:48:56.128Z,21.80
2023-01-20T19:54:02.284Z,22.04
2023-01-20T19:59:08.510Z,21.08
2023-01-20T20:04:14.654Z,20.85
2023-01-20T20:09:20.819Z,20.87
2023-01-20T20:14:26.920Z,19.56
2023-01-20T20:19:33.213Z,19.82
2023-01-20T20:24:39.522Z,19.20
2023-01-20T20:29:45.793Z,19.29
2023-01-20T20:34:51.953Z,19.79
2023-01-20T20:39:58.229Z,19.41
2023-01-20T20:45:04.402Z,20.19
2023-01-20T20:50:10.581Z,19.37
2023-01-20T20:55:16.631Z,18.97
2023-01-20T21:00:22.843Z,18.20
2023-01-20T21:05:28.997Z,18.16
2023-01-20T21:10:35.208Z,18.49
2023-01-20T21:15:41.368Z,18.03
2023-01-20T21:20:47.478Z,18.56
2023-01-20T21:25:53.573Z,19.92
2023-01-20T21:30:59.786Z,19.44
2023-01-20T21:36:05.925Z,19.31
2023-01-20T21:41:12.148Z,20.42
2023-01-20T21:46:18.308Z,19.80
2023-01-20T21:51:24.462Z,20.47
2023-01-20T21:56:30.632Z,20.35
2023-01-20T22:01:36.804Z,19.97
2023-01-20T22:06:42.959Z,20.23
2023-01-20T22:11:49.188Z,19.19
2023-01-20T22:16:55.357Z,19.38
2023-01-20T22:22:01.812Z,19.36
2023-01-20T22:27:07.936Z,19.04
2023-01-20T22:32:14.464Z,18.58
2023-01-20T22:37:20.502Z,18.92
2023-01-20T22:42:26.711Z,19.39
2023-01-20T22:47:32.828Z,18.84
2023-01-20T22:52:39.143Z,19.43
2023-01-20T22:57:45.299Z,19.11
2023-01-20T23:02:51.531Z,19.16
2023-01-20T23:07:57.664Z,18.78
2023-01-20T23:13:03.806Z,19.15
2023-01-20T23:18:09.918Z,18.95
2023-01-20T23:23:16.137Z,19.10
2023-01-20T23:28:22.201Z,19.27
2023-01-20T23:33:28.490Z,18.57
2023-01-20T23:38:34.653Z,18.48
2023-01-20T23:43:41.318Z,19.07
2023-01-20T23:48:47.439Z,18.51
2023-01-20T23:53:53.880Z,18.88
2023-01-20T23:59:00.015Z,18.53
